Terminal Aerodrome Forecast
Issued by NWS Wilmington, OH

Current Version | Previous Version | Graphics & Text | Print | Product List | Glossary On
Versions: 1 2 3 4 5 6 7 8 9 10 11 12 13 14 15 16 17 18 19 20 21
000
FTUS41 KILN 230500
TAFDAY
TAF
KDAY 230535Z 2306/2406 14011KT P6SM -SHRA SCT028 OVC060
     FM230800 17011KT P6SM VCSH BKN028 OVC050
     FM231000 17011KT P6SM OVC015
     FM232200 12005KT 5SM -SHRA BR OVC010
     FM240200 08004KT 5SM BR OVC015=

USA.gov is the U.S. government's official web portal to all federal, state and local government web resources and services.